Disclaimer

Please do not use the information listed here in-flight or in-navigation, as they are not provided to us by the airports but are provided by volunteers, so they might be outdated.

Search


Regions


Airport information page

No radio frequency information is available.

Airport informations:
Latitude: 50° 06' 35.85" N
Longitude: 022° 01' 08.40" E
Elevation: 675 feet - 206 meters
Operating hours: Remarks
Operating agency: Civil government, landing fees and diplomatic clearance may be required
Timezone: UTC+1(+2DT) - Last Sunday in March to last Sunday in October
Fuel: Jet A1+, Jet A1 with icing inhibitor.

100/130 MIL Spec, low lead, aviation gasoline (BLUE)

Runway information:
08/26 - 2700 x 1125 feet< - >823 x 343 meters
09/27 - 10499 x 148 feet< - >3200 x 45 meters

Recent METARs:
EPRZ 210200Z 08014KT 8000 -SN BKN006 M00/M01 Q1019
EPRZ 210230Z 08016KT 8000 -SN BKN006 M00/M01 Q1019
EPRZ 210300Z 08016KT 8000 -SN BKN006 M00/M01 Q1019

Airport on the map: